Time;durP1;ratioP1;P1;durP2;ratioP2;P2;SDS_P1;SDS_P2;PMS_P1;PMS_P2;Temp;Humidity;BMP_temperature;BMP_pressure;BME280_temperature;BME280_humidity;BME280_pressure;Samples;Min_cycle;Max_cycle;Signal;HPM_P1;HPM_P2
2023/10/09 00:01:51;;;;;;;12.23;5.30;;;;;;;13.64;100.00;97052.84;6155918;22;101868;-59
2023/10/09 00:04:18;;;;;;;14.97;5.60;;;;;;;13.70;100.00;97051.81;6176476;22;102425;-59
2023/10/09 00:06:46;;;;;;;15.13;6.43;;;;;;;13.58;100.00;97049.31;6151236;22;101996;-59
2023/10/09 00:09:30;;;;;;;13.80;6.27;;;;;;;13.66;100.00;97050.72;6177169;22;102437;-59
2023/10/09 00:11:57;;;;;;;13.20;6.00;;;;;;;13.72;100.00;97044.34;6150392;22;105225;-60
2023/10/09 00:14:26;;;;;;;9.67;6.00;;;;;;;13.63;100.00;97053.91;6176760;22;101820;-60
2023/10/09 00:17:05;;;;;;;13.37;6.30;;;;;;;13.66;100.00;97048.84;6177551;22;102860;-60
2023/10/09 00:19:33;;;;;;;10.97;5.77;;;;;;;13.64;100.00;97044.81;6176955;22;102887;-60
2023/10/09 00:22:04;;;;;;;10.63;5.93;;;;;;;13.61;100.00;97031.94;6177178;22;101915;-60
2023/10/09 00:24:33;;;;;;;17.03;6.50;;;;;;;13.53;100.00;97038.56;6180959;22;103271;-59
2023/10/09 00:27:11;;;;;;;11.67;6.37;;;;;;;13.53;100.00;97041.22;6177051;22;101894;-59
2023/10/09 00:29:45;;;;;;;10.30;6.17;;;;;;;13.55;100.00;97038.31;6151369;22;105659;-59
2023/10/09 00:32:22;;;;;;;9.50;5.90;;;;;;;13.55;100.00;97035.63;6150208;22;105899;-59
2023/10/09 00:34:50;;;;;;;14.43;5.60;;;;;;;13.64;100.00;97013.56;6177186;22;101793;-59
2023/10/09 00:37:22;;;;;;;14.30;6.40;;;;;;;13.39;100.00;97021.34;6177459;22;102398;-60
2023/10/09 00:39:55;;;;;;;12.50;5.97;;;;;;;13.44;100.00;97015.22;6150258;22;105755;-60
2023/10/09 00:42:29;;;;;;;13.93;5.90;;;;;;;13.47;100.00;97015.53;6151107;22;101934;-59
2023/10/09 00:45:03;;;;;;;13.00;6.40;;;;;;;13.67;100.00;97006.88;6154607;22;105613;-59
2023/10/09 00:47:34;;;;;;;11.87;5.80;;;;;;;13.72;100.00;97004.25;6177402;22;101788;-59
2023/10/09 00:50:11;;;;;;;10.57;5.60;;;;;;;13.86;100.00;97000.09;6151323;22;104161;-59
2023/10/09 00:52:50;;;;;;;10.37;5.57;;;;;;;13.87;100.00;96994.50;6150270;22;105471;-59
2023/10/09 00:55:21;;;;;;;16.57;6.10;;;;;;;14.00;100.00;96975.34;6151224;22;101841;-59
2023/10/09 00:57:59;;;;;;;11.40;5.63;;;;;;;14.02;100.00;96975.09;6151252;22;105500;-59
2023/10/09 01:00:45;;;;;;;11.80;5.17;;;;;;;14.08;100.00;96979.41;6150541;22;105614;-59
2023/10/09 01:03:19;;;;;;;13.77;5.67;;;;;;;14.08;100.00;96963.34;6151115;22;101977;-59
2023/10/09 01:05:56;;;;;;;13.87;5.87;;;;;;;14.09;100.00;96962.28;6151413;22;105204;-59
2023/10/09 01:08:28;;;;;;;13.47;5.80;;;;;;;14.08;100.00;96958.00;6154245;22;104378;-60
2023/10/09 01:10:57;;;;;;;9.83;5.30;;;;;;;14.04;100.00;96959.56;6176624;22;102891;-59
2023/10/09 01:13:38;;;;;;;16.20;5.60;;;;;;;14.06;100.00;96954.78;6150162;22;105330;-60
2023/10/09 01:16:12;;;;;;;13.90;5.57;;;;;;;13.98;100.00;96960.63;6176920;22;101768;-59
2023/10/09 01:18:40;;;;;;;10.43;5.10;;;;;;;13.96;100.00;96952.84;6176443;22;102443;-59
2023/10/09 01:21:07;;;;;;;10.13;4.83;;;;;;;13.97;100.00;96951.00;6149549;22;105634;-59
2023/10/09 01:23:58;;;;;;;9.80;5.00;;;;;;;13.87;100.00;96940.22;6150657;22;101956;-60
2023/10/09 01:26:26;;;;;;;9.17;5.13;;;;;;;13.73;100.00;96939.06;6177742;22;102559;-59
2023/10/09 01:28:57;;;;;;;9.57;5.30;;;;;;;13.48;100.00;96945.03;6151287;22;104302;-60
2023/10/09 01:31:26;;;;;;;10.43;4.90;;;;;;;13.23;100.00;96944.78;6156201;22;101937;-60
2023/10/09 01:33:53;;;;;;;11.93;5.10;;;;;;;13.31;100.00;96936.28;6151309;22;105789;-60
2023/10/09 01:36:31;;;;;;;10.87;5.23;;;;;;;13.33;100.00;96939.53;6177649;22;101781;-59
2023/10/09 01:39:01;;;;;;;10.33;5.00;;;;;;;13.27;100.00;96929.06;6178371;22;102248;-59
2023/10/09 01:41:28;;;;;;;12.17;5.60;;;;;;;13.23;100.00;96928.75;6177450;22;102752;-59
2023/10/09 01:44:00;;;;;;;9.63;4.90;;;;;;;13.23;100.00;96925.28;6151827;22;101993;-59
2023/10/09 01:46:27;;;;;;;11.07;5.70;;;;;;;13.09;100.00;96937.44;6151847;22;105269;-59
2023/10/09 01:48:54;;;;;;;11.27;5.20;;;;;;;13.13;100.00;96927.88;6151163;22;106588;-60
2023/10/09 01:51:21;;;;;;;9.33;5.23;;;;;;;13.14;100.00;96935.59;6151924;22;101860;-60
2023/10/09 01:53:54;;;;;;;11.10;5.70;;;;;;;13.18;100.00;96935.91;6155547;22;105101;-59
2023/10/09 01:56:23;;;;;;;12.63;5.70;;;;;;;13.15;100.00;96937.25;6151651;22;101955;-60
2023/10/09 01:58:50;;;;;;;11.20;5.67;;;;;;;13.14;100.00;96938.28;6152007;22;105552;-59
2023/10/09 02:01:17;;;;;;;10.07;5.00;;;;;;;13.10;100.00;96928.38;6151373;22;105769;-59
2023/10/09 02:03:45;;;;;;;10.30;4.97;;;;;;;13.17;100.00;96931.63;6178095;22;101788;-59
2023/10/09 02:06:27;;;;;;;8.43;5.20;;;;;;;13.17;100.00;96924.44;6152056;22;105163;-59
2023/10/09 02:08:56;;;;;;;9.00;5.30;;;;;;;13.08;100.00;96927.81;6151133;22;105939;-60
2023/10/09 02:11:37;;;;;;;9.10;5.17;;;;;;;13.10;100.00;96920.34;6151980;22;101838;-59
2023/10/09 02:14:19;;;;;;;7.37;4.80;;;;;;;13.08;100.00;96917.16;6151609;22;105604;-60
2023/10/09 02:17:02;;;;;;;10.83;5.27;;;;;;;13.08;100.00;96920.59;6155094;22;105825;-59
2023/10/09 02:19:33;;;;;;;9.43;5.13;;;;;;;13.06;100.00;96912.06;6151887;22;105162;-59
2023/10/09 02:22:03;;;;;;;11.53;5.57;;;;;;;13.02;100.00;96915.50;6151091;22;105539;-59
2023/10/09 02:27:19;;;;;;;10.23;5.10;;;;;;;13.01;100.00;96911.19;6151744;22;105506;-59
2023/10/09 02:29:47;;;;;;;10.00;5.10;;;;;;;12.88;100.00;96914.22;6176761;22;102572;-60
2023/10/09 02:32:27;;;;;;;11.77;5.50;;;;;;;12.88;100.00;96907.03;6151692;22;102470;-60
2023/10/09 02:34:54;;;;;;;9.50;5.37;;;;;;;12.94;100.00;96913.22;6151721;22;105796;-59
2023/10/09 02:37:25;;;;;;;10.17;4.77;;;;;;;12.85;100.00;96904.03;6177066;22;101863;-59
2023/10/09 02:39:52;;;;;;;12.23;6.10;;;;;;;12.89;100.00;96899.81;6156123;22;101740;-59
2023/10/09 02:42:23;;;;;;;15.87;5.63;;;;;;;12.90;100.00;96904.09;6150904;22;105311;-59
2023/10/09 02:44:51;;;;;;;11.33;5.43;;;;;;;12.86;100.00;96897.69;6151687;22;101866;-59
2023/10/09 02:47:20;;;;;;;11.30;5.80;;;;;;;12.87;100.00;96892.06;6151721;22;105389;-60
2023/10/09 02:50:07;;;;;;;7.80;4.73;;;;;;;12.79;100.00;96895.19;6150460;22;105490;-60
2023/10/09 02:52:40;;;;;;;12.30;5.00;;;;;;;12.80;100.00;96880.00;6151792;22;101868;-59
2023/10/09 02:55:13;;;;;;;10.83;4.83;;;;;;;12.61;100.00;96892.06;6151960;22;105191;-59
2023/10/09 02:57:43;;;;;;;11.57;5.17;;;;;;;12.56;100.00;96878.66;6151020;22;105475;-60
2023/10/09 03:00:18;;;;;;;9.07;4.80;;;;;;;12.56;100.00;96878.66;6155665;22;101950;-59
2023/10/09 03:02:48;;;;;;;10.37;5.23;;;;;;;12.46;100.00;96878.56;6151043;22;105488;-59
2023/10/09 03:05:15;;;;;;;8.40;4.60;;;;;;;12.48;100.00;96871.91;6177552;22;101836;-60
2023/10/09 03:07:43;;;;;;;10.10;5.17;;;;;;;12.53;100.00;96868.50;6151895;22;104988;-60
2023/10/09 03:10:10;;;;;;;11.47;4.73;;;;;;;12.54;100.00;96865.56;6151163;22;103804;-60
2023/10/09 03:12:39;;;;;;;9.53;5.07;;;;;;;12.43;100.00;96863.84;6177684;22;101761;-59
2023/10/09 03:15:09;;;;;;;8.27;4.67;;;;;;;12.45;100.00;96859.09;6151167;22;105269;-59
2023/10/09 03:17:36;;;;;;;8.77;5.03;;;;;;;12.43;100.00;96858.50;6150948;22;105344;-59
2023/10/09 03:20:12;;;;;;;8.87;4.60;;;;;;;12.38;100.00;96855.78;6151518;22;101893;-59
2023/10/09 03:22:39;;;;;;;10.27;5.27;;;;;;;12.31;100.00;96852.53;6180934;22;102467;-59
2023/10/09 03:25:11;;;;;;;9.47;5.07;;;;;;;12.30;100.00;96848.25;6151381;22;101843;-59
2023/10/09 03:27:41;;;;;;;9.73;4.93;;;;;;;12.27;100.00;96853.28;6177807;22;102350;-59
2023/10/09 03:30:16;;;;;;;9.00;5.30;;;;;;;12.14;100.00;96854.47;6150800;22;105917;-59
2023/10/09 03:32:44;;;;;;;9.63;4.90;;;;;;;12.10;100.00;96837.34;6177142;22;101752;-59
2023/10/09 03:35:15;;;;;;;9.77;5.50;;;;;;;12.03;100.00;96855.38;6177588;22;102377;-59
2023/10/09 03:37:43;;;;;;;13.50;5.57;;;;;;;12.01;100.00;96832.69;6176187;22;102568;-59
2023/10/09 03:40:17;;;;;;;7.40;5.10;;;;;;;11.98;100.00;96841.19;6177537;22;101723;-59
2023/10/09 03:42:44;;;;;;;9.60;4.87;;;;;;;12.00;100.00;96839.09;6177116;22;102416;-59
2023/10/09 03:45:24;;;;;;;8.77;5.13;;;;;;;11.96;100.00;96840.63;6181101;22;102684;-62
2023/10/09 03:47:57;;;;;;;10.90;4.97;;;;;;;12.00;100.00;96831.09;6145708;22;105101;-59
2023/10/09 03:50:35;;;;;;;11.73;5.60;;;;;;;11.98;100.00;96841.19;6169122;22;102786;-59
2023/10/09 03:53:06;;;;;;;8.70;5.57;;;;;;;11.94;100.00;96838.19;6152193;22;101874;-60
2023/10/09 03:55:33;;;;;;;10.37;5.03;;;;;;;11.95;100.00;96828.34;6178109;22;102381;-59
2023/10/09 03:58:00;;;;;;;11.17;5.20;;;;;;;11.79;100.00;96830.03;6151488;22;105597;-59
2023/10/09 04:00:31;;;;;;;9.83;5.27;;;;;;;11.71;100.00;96822.44;6178348;22;102062;-59
2023/10/09 04:02:59;;;;;;;9.43;5.63;;;;;;;11.69;100.00;96829.09;6178327;22;102596;-59
2023/10/09 04:05:28;;;;;;;8.63;4.97;;;;;;;11.58;100.00;96822.78;6150996;22;105668;-59
2023/10/09 04:07:58;;;;;;;13.57;5.87;;;;;;;11.56;100.00;96830.19;6155483;22;101744;-59
2023/10/09 04:10:43;;;;;;;7.27;5.13;;;;;;;11.56;100.00;96835.53;6151452;22;105841;-59
2023/10/09 04:13:12;;;;;;;9.10;5.50;;;;;;;11.51;100.00;96826.69;6178186;22;101854;-59
2023/10/09 04:15:42;;;;;;;9.57;5.40;;;;;;;11.49;100.00;96832.25;6152531;22;105654;-59
2023/10/09 04:18:15;;;;;;;10.90;5.33;;;;;;;11.40;100.00;96831.03;6151098;22;105475;-60
2023/10/09 04:23:35;;;;;;;14.00;5.63;;;;;;;11.39;100.00;96833.97;6174442;22;102744;-59
2023/10/09 04:26:10;;;;;;;10.07;5.03;;;;;;;11.39;100.00;96823.31;6177830;22;102507;-59
2023/10/09 04:28:37;;;;;;;10.47;6.17;;;;;;;11.43;100.00;96824.41;6152271;22;101974;-59
2023/10/09 04:31:07;;;;;;;11.23;5.63;;;;;;;11.33;100.00;96817.09;6155171;22;104065;-60
2023/10/09 04:33:42;;;;;;;9.87;5.67;;;;;;;11.38;100.00;96819.84;6152094;22;101930;-60
2023/10/09 04:36:16;;;;;;;11.97;5.20;;;;;;;11.33;100.00;96819.75;6150393;22;105265;-59
2023/10/09 04:38:55;;;;;;;10.33;5.40;;;;;;;11.33;100.00;96810.97;6150283;22;105797;-59
2023/10/09 04:41:27;;;;;;;9.33;5.00;;;;;;;11.14;100.00;96820.25;6177626;22;101772;-59
2023/10/09 04:44:03;;;;;;;12.67;5.47;;;;;;;11.15;100.00;96817.38;6177026;22;104143;-59
2023/10/09 04:46:43;;;;;;;13.13;6.07;;;;;;;11.27;100.00;96818.06;6150304;22;105813;-61
2023/10/09 04:49:26;;;;;;;9.30;5.10;;;;;;;11.24;100.00;96809.78;6176948;22;101684;-60
2023/10/09 04:52:05;;;;;;;8.33;4.70;;;;;;;11.27;100.00;96818.06;6177199;22;102279;-60
2023/10/09 04:54:39;;;;;;;14.07;5.57;;;;;;;11.33;100.00;96814.44;6180392;22;101876;-60
2023/10/09 04:57:17;;;;;;;8.63;5.20;;;;;;;11.26;100.00;96813.81;6151083;22;104953;-59
2023/10/09 04:59:48;;;;;;;9.40;5.40;;;;;;;11.31;100.00;96823.72;6174867;22;102707;-59
2023/10/09 05:02:19;;;;;;;9.73;5.50;;;;;;;11.27;100.00;96814.59;6151097;22;101859;-60
2023/10/09 05:04:48;;;;;;;10.83;5.17;;;;;;;11.28;100.00;96816.22;6150471;22;103724;-60
2023/10/09 05:07:54;;;;;;;11.63;5.70;;;;;;;11.30;100.00;96819.44;6175788;22;102674;-60
2023/10/09 05:10:17;;;;;;;9.43;5.63;;;;;;;11.33;100.00;96813.66;6176903;22;101732;-59
2023/10/09 05:12:46;;;;;;;10.10;5.80;;;;;;;11.35;100.00;96822.19;6150988;22;106023;-59
2023/10/09 05:15:14;;;;;;;9.80;5.13;;;;;;;11.33;100.00;96814.44;6180409;22;102565;-60
2023/10/09 05:17:51;;;;;;;11.13;6.10;;;;;;;11.42;100.00;96823.63;6151039;22;103753;-59
2023/10/09 05:23:23;;;;;;;11.13;6.40;;;;;;;11.38;100.00;96829.66;6149205;22;101970;-60
2023/10/09 05:25:58;;;;;;;10.77;5.73;;;;;;;11.47;100.00;96822.88;6176554;22;105220;-60
2023/10/09 05:28:25;;;;;;;11.93;6.70;;;;;;;11.39;100.00;96833.97;6175860;22;103008;-60
2023/10/09 05:31:02;;;;;;;12.40;5.97;;;;;;;11.47;100.00;96834.34;6150471;22;102020;-60
2023/10/09 05:33:33;;;;;;;11.20;5.53;;;;;;;11.42;100.00;96831.63;6176944;22;102584;-60
2023/10/09 05:36:17;;;;;;;11.57;6.10;;;;;;;11.50;100.00;96828.53;6175710;22;102915;-60
2023/10/09 05:38:58;;;;;;;10.40;5.90;;;;;;;11.60;100.00;96833.22;6181201;22;101816;-60
2023/10/09 05:47:22;;;;;;;12.03;6.10;;;;;;;11.58;100.00;96843.28;6176847;22;102757;-59
2023/10/09 05:50:03;;;;;;;10.17;5.63;;;;;;;11.77;100.00;96836.66;6175661;22;102435;-60
2023/10/09 06:02:17;;;;;;;13.80;5.43;;;;;;;11.85;100.00;96865.53;6112315;22;102071;-60
2023/10/09 06:03:55;;;;;;;8.60;5.23;;;;;;;11.78;100.00;96870.25;6178893;22;102530;-60
2023/10/09 06:06:42;;;;;;;12.13;5.20;;;;;;;11.92;100.00;96872.31;6176846;22;101773;-60
2023/10/09 06:15:18;;;;;;;8.07;5.47;;;;;;;12.04;100.00;96880.97;6151792;22;101919;-60
2023/10/09 06:17:50;;;;;;;10.00;6.13;;;;;;;12.07;100.00;96882.34;6152394;22;105179;-60
2023/10/09 06:23:15;;;;;;;18.27;6.50;;;;;;;12.07;100.00;96888.50;6178269;22;102011;-59
2023/10/09 06:25:50;;;;;;;15.67;6.37;;;;;;;12.14;100.00;96859.78;6177583;22;102634;-60
2023/10/09 06:28:32;;;;;;;12.67;6.00;;;;;;;12.25;100.00;96871.38;6180490;22;103002;-60
2023/10/09 06:31:27;;;;;;;12.50;6.30;;;;;;;12.45;100.00;96876.94;6177544;22;102799;-60
2023/10/09 06:34:08;;;;;;;14.20;6.63;;;;;;;12.49;100.00;96884.19;6150896;22;105583;-60
2023/10/09 06:36:33;;;;;;;15.00;6.33;;;;;;;12.67;100.00;96878.53;6151865;22;101885;-60
2023/10/09 06:41:45;;;;;;;13.03;6.00;;;;;;;13.06;100.00;96879.19;6175384;22;102965;-60
2023/10/09 06:44:52;;;;;;;15.87;6.23;;;;;;;13.33;100.00;96874.63;6151700;22;101912;-59
2023/10/09 06:46:59;;;;;;;16.47;6.73;;;;;;;13.36;100.00;96882.13;6177283;22;102499;-59
2023/10/09 06:49:33;;;;;;;13.10;6.40;;;;;;;13.55;100.00;96869.97;6177065;22;102446;-60
2023/10/09 06:52:13;;;;;;;12.77;6.27;;;;;;;13.77;100.00;96881.34;6182140;22;101820;-60
2023/10/09 06:54:49;;;;;;;14.47;6.53;;;;;;;13.99;100.00;96874.78;6151101;22;105637;-59
2023/10/09 06:57:43;;;;;;;12.47;5.17;;;;;;;14.18;100.00;96869.81;6151667;22;101920;-60
2023/10/09 07:02:53;;;;;;;15.10;6.73;;;;;;;14.64;100.00;96864.38;6150862;22;105680;-60
2023/10/09 07:05:20;;;;;;;12.07;5.30;;;;;;;14.86;100.00;96862.28;6177302;22;103066;-59
2023/10/09 07:07:54;;;;;;;15.50;5.90;;;;;;;15.08;100.00;96862.03;6151872;22;105280;-59
2023/10/09 07:10:39;;;;;;;10.83;5.70;;;;;;;15.10;100.00;96859.91;6150937;22;105658;-60
2023/10/09 07:13:05;;;;;;;12.70;5.10;;;;;;;15.29;100.00;96860.97;6181910;22;101851;-60
2023/10/09 07:18:23;;;;;;;11.13;5.23;;;;;;;15.74;100.00;96850.22;6151454;22;101777;-60
2023/10/09 07:21:01;;;;;;;11.43;5.30;;;;;;;15.85;100.00;96857.16;6177584;22;102308;-60
2023/10/09 07:23:32;;;;;;;10.50;5.10;;;;;;;16.11;100.00;96850.66;6150560;22;105883;-60
2023/10/09 07:26:23;;;;;;;8.60;4.80;;;;;;;16.36;100.00;96858.63;6150993;22;102009;-60
2023/10/09 07:28:50;;;;;;;16.37;5.30;;;;;;;16.47;100.00;96849.47;6148295;22;103717;-60
2023/10/09 07:31:29;;;;;;;9.63;4.60;;;;;;;16.54;100.00;96856.16;6150487;22;104816;-60
2023/10/09 07:33:59;;;;;;;10.87;4.20;;;;;;;16.81;100.00;96855.72;6177694;22;101745;-60
2023/10/09 07:36:37;;;;;;;14.80;4.77;;;;;;;16.74;100.00;96861.41;6155086;22;105687;-60
2023/10/09 07:39:13;;;;;;;9.30;4.20;;;;;;;16.83;100.00;96865.13;6151417;22;101880;-59
2023/10/09 07:41:55;;;;;;;10.30;4.37;;;;;;;16.89;100.00;96869.38;6151720;22;105364;-59
2023/10/09 07:47:22;;;;;;;11.30;4.57;;;;;;;16.84;100.00;96882.06;6171230;22;102226;-60
2023/10/09 07:49:53;;;;;;;11.40;4.70;;;;;;;16.70;100.00;96878.34;6177591;22;102837;-60
2023/10/09 07:52:22;;;;;;;10.00;4.23;;;;;;;16.81;100.00;96882.59;6176704;22;102476;-59
2023/10/09 07:54:52;;;;;;;9.53;4.50;;;;;;;16.88;100.00;96877.72;6177215;22;101790;-59
2023/10/09 07:57:28;;;;;;;10.83;4.30;;;;;;;16.94;100.00;96876.63;6151210;22;105449;-60
2023/10/09 08:00:00;;;;;;;9.60;4.20;;;;;;;17.03;100.00;96877.63;6154990;22;105501;-59
2023/10/09 08:02:33;;;;;;;11.67;4.53;;;;;;;17.38;100.00;96883.56;6177368;22;102953;-60
2023/10/09 08:05:18;;;;;;;10.73;4.37;;;;;;;17.65;100.00;96883.09;6176367;22;103010;-60
2023/10/09 08:07:55;;;;;;;15.77;4.87;;;;;;;17.75;100.00;96873.03;6176816;22;101796;-60
2023/10/09 08:16:04;;;;;;;13.23;4.13;;;;;;;18.19;100.00;96881.72;5030791;28;101571;-60
2023/10/09 08:18:31;;;;;;;11.57;4.10;;;;;;;18.39;100.00;96881.53;5026120;27;102588;-60
2023/10/09 08:23:52;;;;;;;10.87;4.13;;;;;;;18.75;100.00;96887.28;5025352;28;105189;-59
2023/10/09 08:26:28;;;;;;;11.10;4.37;;;;;;;18.80;100.00;96876.44;5026321;27;102906;-59
2023/10/09 08:29:15;;;;;;;12.30;4.30;;;;;;;18.82;100.00;96888.53;5027075;27;101758;-60
2023/10/09 08:31:47;;;;;;;13.80;4.23;;;;;;;18.93;100.00;96883.78;5025744;28;105603;-59
2023/10/09 08:34:24;;;;;;;13.37;4.33;;;;;;;18.95;100.00;96878.91;5026336;27;103166;-59
2023/10/09 08:36:53;;;;;;;12.80;3.80;;;;;;;18.88;100.00;96886.56;5030336;28;101823;-60
2023/10/09 08:39:26;;;;;;;7.63;3.70;;;;;;;18.87;100.00;96884.97;5024710;28;105323;-60
2023/10/09 08:41:57;;;;;;;10.53;3.77;;;;;;;18.96;100.00;96891.31;5026782;27;102099;-59
2023/10/09 08:44:27;;;;;;;11.43;4.23;;;;;;;19.21;100.00;96886.38;5026897;27;102381;-60
2023/10/09 08:46:57;;;;;;;12.03;4.07;;;;;;;19.56;100.00;96890.44;5025923;27;102712;-59
2023/10/09 08:49:25;;;;;;;9.87;3.70;;;;;;;19.98;100.00;96885.63;5025210;28;102054;-59
2023/10/09 08:51:53;;;;;;;11.83;4.00;;;;;;;20.24;100.00;96888.69;5024992;28;104945;-59
2023/10/09 08:54:20;;;;;;;14.90;4.43;;;;;;;20.21;100.00;96890.09;5025621;28;102679;-60
2023/10/09 08:56:51;;;;;;;9.90;3.77;;;;;;;20.06;100.00;96892.25;5026583;28;102106;-59
2023/10/09 08:59:19;;;;;;;9.87;3.53;;;;;;;20.19;100.00;96897.69;5027803;28;105529;-59
2023/10/09 09:01:49;;;;;;;8.87;3.50;;;;;;;20.39;100.00;96891.09;5026178;28;101951;-60
2023/10/09 09:04:39;;;;;;;12.93;4.00;;;;;;;20.78;100.00;96896.78;5024667;28;105342;-60
2023/10/09 09:07:06;;;;;;;15.70;3.53;;;;;;;21.25;100.00;96899.81;5024127;28;105807;-60
2023/10/09 09:09:34;;;;;;;17.70;4.30;;;;;;;21.35;100.00;96898.78;5026335;27;101948;-60
2023/10/09 09:12:02;;;;;;;12.60;3.80;;;;;;;21.37;100.00;96902.00;5026057;28;102439;-60
2023/10/09 09:14:39;;;;;;;10.67;3.77;;;;;;;21.45;100.00;96898.53;5023583;28;105442;-59
2023/10/09 09:17:10;;;;;;;11.10;3.20;;;;;;;21.74;100.00;96891.63;5024737;28;101792;-60
2023/10/09 09:19:39;;;;;;;11.47;3.57;;;;;;;21.65;100.00;96898.06;5026240;27;102586;-60
2023/10/09 09:22:12;;;;;;;14.60;3.10;;;;;;;21.81;100.00;96896.63;5027289;28;105980;-59
2023/10/09 09:24:45;;;;;;;12.80;3.27;;;;;;;22.13;100.00;96897.09;5026214;28;102803;-59
2023/10/09 09:27:18;;;;;;;9.60;3.10;;;;;;;22.34;100.00;96894.69;5011505;28;105979;-59
2023/10/09 09:29:52;;;;;;;11.27;3.60;;;;;;;22.70;100.00;96884.44;5012634;28;102026;-59
2023/10/09 09:32:35;;;;;;;9.30;3.83;;;;;;;23.04;100.00;96889.97;5012695;28;102709;-60
2023/10/09 09:35:05;;;;;;;11.50;3.60;;;;;;;22.78;100.00;96889.13;5010267;28;105752;-60
2023/10/09 09:37:50;;;;;;;6.33;3.30;;;;;;;22.91;100.00;96894.41;4994463;28;101879;-59
2023/10/09 09:40:29;;;;;;;11.43;3.97;;;;;;;22.72;100.00;96882.25;5010994;28;105477;-60
2023/10/09 09:43:04;;;;;;;12.87;3.50;;;;;;;22.44;100.00;96894.41;5011738;28;102622;-59
2023/10/09 09:45:33;;;;;;;15.27;3.20;;;;;;;22.28;100.00;96890.50;5015796;28;101790;-59
2023/10/09 09:48:05;;;;;;;11.40;3.23;;;;;;;22.38;100.00;96890.19;5011690;28;102782;-59
2023/10/09 09:50:43;;;;;;;12.63;3.03;;;;;;;22.48;100.00;96898.91;5012298;28;101709;-60
2023/10/09 09:53:11;;;;;;;10.83;3.10;;;;;;;22.70;100.00;96898.00;5012451;28;102329;-60
2023/10/09 09:55:42;;;;;;;11.77;3.23;;;;;;;22.91;100.00;96888.16;5009992;28;105522;-60
2023/10/09 09:58:18;;;;;;;11.43;3.00;;;;;;;22.76;100.00;96884.00;5012298;28;101802;-60
2023/10/09 10:00:52;;;;;;;13.50;3.70;;;;;;;22.57;100.00;96890.81;5010684;28;105349;-59
2023/10/09 10:03:22;;;;;;;12.30;3.43;;;;;;;22.57;100.00;96888.88;5011704;28;102705;-60
2023/10/09 10:05:52;;;;;;;11.57;3.63;;;;;;;22.48;100.00;96884.53;5010546;28;101973;-59
2023/10/09 10:08:21;;;;;;;7.73;2.97;;;;;;;22.52;100.00;96890.94;5013475;28;105311;-60
2023/10/09 10:10:52;;;;;;;11.13;3.33;;;;;;;22.64;100.00;96880.28;5010420;28;101870;-59
2023/10/09 10:13:58;;;;;;;9.20;3.10;;;;;;;22.67;100.00;96887.81;5010617;28;105914;-59
2023/10/09 10:16:34;;;;;;;16.10;3.30;;;;;;;22.96;100.00;96875.28;5011312;28;102556;-59
2023/10/09 10:19:21;;;;;;;8.33;2.97;;;;;;;23.17;100.00;96883.59;5010398;28;101922;-59
2023/10/09 10:21:52;;;;;;;13.00;3.27;;;;;;;23.56;100.00;96883.44;5010300;28;105784;-60
2023/10/09 10:24:53;;;;;;;12.93;3.00;;;;;;;23.80;100.00;96883.72;5011199;28;101781;-59
2023/10/09 10:27:26;;;;;;;11.27;2.90;;;;;;;23.89;100.00;96876.41;5010074;28;101967;-59
2023/10/09 10:30:31;;;;;;;11.90;3.40;;;;;;;23.93;100.00;96886.28;5010354;28;105036;-59
2023/10/09 10:33:09;;;;;;;15.13;3.13;;;;;;;24.00;100.00;96883.09;5012609;28;101823;-59
2023/10/09 10:35:45;;;;;;;10.23;3.40;;;;;;;24.25;100.00;96893.88;5010132;28;105575;-60
2023/10/09 10:38:44;;;;;;;11.63;3.27;;;;;;;24.50;100.00;96876.69;5009899;28;103287;-60
2023/10/09 10:41:17;;;;;;;10.57;2.90;;;;;;;24.38;81.60;96871.16;4993279;28;102173;-59
2023/10/09 10:46:34;;;;;;;11.43;2.50;;;;;;;24.71;72.42;96871.31;5018846;28;105370;-60
2023/10/09 10:49:14;;;;;;;10.23;3.00;;;;;;;24.76;72.37;96862.97;5009713;28;101816;-59
2023/10/09 10:51:48;;;;;;;13.60;3.43;;;;;;;24.77;64.81;96870.00;5009919;28;105397;-59
2023/10/09 10:57:52;;;;;;;10.80;3.17;;;;;;;24.45;62.19;96868.72;5009257;28;104948;-60
2023/10/09 11:03:13;;;;;;;9.27;2.63;;;;;;;24.90;66.24;96858.09;5010685;28;101783;-59
2023/10/09 11:05:42;;;;;;;14.73;3.03;;;;;;;24.85;58.68;96852.84;5011221;28;102540;-59
2023/10/09 11:08:11;;;;;;;10.73;3.13;;;;;;;24.78;54.68;96852.56;5008983;28;105818;-60
2023/10/09 11:10:49;;;;;;;12.90;3.20;;;;;;;24.76;55.91;96852.09;5009736;28;101894;-59
2023/10/09 11:16:28;;;;;;;14.60;3.50;;;;;;;24.50;54.76;96848.69;5009932;28;103113;-59
2023/10/09 11:18:57;;;;;;;11.03;3.23;;;;;;;24.50;57.05;96859.56;5012965;28;101881;-59
2023/10/09 11:21:30;;;;;;;11.30;2.90;;;;;;;24.47;53.59;96846.63;5008976;28;104636;-59
2023/10/09 11:24:23;;;;;;;12.40;2.60;;;;;;;24.42;57.06;96846.81;5009394;28;101817;-59
2023/10/09 11:26:53;;;;;;;10.23;3.03;;;;;;;24.34;55.11;96855.78;5009096;28;105839;-59
2023/10/09 11:29:29;;;;;;;11.23;2.97;;;;;;;24.43;56.94;96848.41;5008716;28;105950;-60
2023/10/09 11:31:59;;;;;;;13.80;2.70;;;;;;;24.43;55.33;96853.84;5010766;28;101702;-59
2023/10/09 11:34:31;;;;;;;9.80;3.07;;;;;;;24.34;56.16;96851.16;5009523;28;105450;-59
2023/10/09 11:37:02;;;;;;;12.90;2.80;;;;;;;24.43;57.71;96853.84;5009960;28;103635;-59
2023/10/09 11:39:34;;;;;;;12.70;2.87;;;;;;;24.48;56.86;96842.78;5009198;28;101933;-60
2023/10/09 11:42:04;;;;;;;11.73;3.03;;;;;;;24.57;57.35;96847.06;5013413;28;102349;-59
2023/10/09 11:44:39;;;;;;;12.43;3.33;;;;;;;24.78;57.19;96847.13;5010356;28;101846;-59
2023/10/09 11:47:23;;;;;;;12.67;2.60;;;;;;;24.77;54.78;96845.53;5010378;28;101718;-59
2023/10/09 11:49:58;;;;;;;10.00;2.73;;;;;;;24.88;54.01;96839.38;5009696;28;102706;-60
2023/10/09 11:52:35;;;;;;;15.80;3.00;;;;;;;25.20;53.77;96835.13;5009077;28;101969;-59
2023/10/09 11:55:02;;;;;;;12.90;3.13;;;;;;;24.91;49.25;96844.16;5008970;28;105575;-59
2023/10/09 11:57:35;;;;;;;13.37;2.90;;;;;;;25.04;50.55;96832.22;5008342;28;105329;-59
2023/10/09 12:03:09;;;;;;;9.30;2.67;;;;;;;25.51;48.65;96836.31;5007386;28;102103;-59
2023/10/09 12:05:37;;;;;;;12.10;2.53;;;;;;;25.75;46.70;96835.63;5013057;28;101780;-59
2023/10/09 12:08:08;;;;;;;15.43;2.93;;;;;;;26.24;46.98;96824.53;5010152;28;102352;-59
2023/10/09 12:10:38;;;;;;;13.13;3.00;;;;;;;25.87;44.59;96833.75;5008121;28;105779;-59
2023/10/09 12:13:07;;;;;;;15.40;3.20;;;;;;;25.42;43.13;96821.22;5010150;28;102216;-59
2023/10/09 12:15:38;;;;;;;13.70;3.20;;;;;;;25.96;45.28;96817.31;5007809;28;105051;-59
2023/10/09 12:18:14;;;;;;;12.20;3.13;;;;;;;26.06;43.74;96809.53;5008097;28;105366;-59
2023/10/09 12:20:42;;;;;;;14.57;3.37;;;;;;;25.67;44.20;96818.22;5008630;28;102185;-59
2023/10/09 12:23:14;;;;;;;11.90;3.17;;;;;;;25.69;43.62;96820.63;5008590;28;104134;-59
2023/10/09 12:25:44;;;;;;;11.33;3.40;;;;;;;25.77;43.18;96817.03;5008008;28;105764;-59
2023/10/09 12:28:13;;;;;;;14.37;3.70;;;;;;;25.62;42.63;96815.72;5011906;28;101914;-59
2023/10/09 12:30:41;;;;;;;15.60;3.30;;;;;;;25.26;43.65;96809.34;5007720;28;105818;-59
2023/10/09 12:33:09;;;;;;;14.27;4.07;;;;;;;25.13;41.24;96807.66;5008473;28;101905;-59
2023/10/09 12:35:39;;;;;;;16.03;3.97;;;;;;;24.99;41.71;96812.56;5009728;28;102620;-60
2023/10/09 12:38:08;;;;;;;17.00;3.93;;;;;;;24.91;42.97;96813.44;5009246;28;102561;-59
2023/10/09 12:40:36;;;;;;;15.07;3.43;;;;;;;24.82;41.89;96818.13;5009729;28;101836;-59
2023/10/09 12:43:03;;;;;;;12.80;3.43;;;;;;;24.69;43.05;96806.38;5009735;28;102611;-59
2023/10/09 12:45:34;;;;;;;15.90;3.47;;;;;;;24.67;43.21;96808.63;5007575;28;105629;-59
2023/10/09 12:48:03;;;;;;;13.07;3.70;;;;;;;24.68;42.88;96814.88;5013106;28;101703;-59